<?xml version="1.0" encoding="UTF-8" standalone="no" ?>
<gpx xmlns="http://www.topografix.com/GPX/1/1" creator="MapSource 6.15.5" version="1.1" xmlns:xsi="http://www.w3.org/2001/XMLSchema-instance" xsi:schemaLocation="http://www.topografix.com/GPX/1/1 http://www.topografix.com/GPX/1/1/gpx.xsd">

  <metadata>
    <link href="http://www.garmin.com">
      <text>Garmin International</text>
    </link>
    <time>2013-10-15T16:28:16Z</time>
    <bounds maxlat="51.9072660" maxlon="7.1877430" minlat="51.8361790" minlon="7.0639430"/>
  </metadata>

  <trk>
    <name>Radwanderg-1 29,4 Km</name>
    <extensions>
      <gpxx:TrackExtension xmlns:gpxx="http://www.garmin.com/xmlschemas/GpxExtensions/v3">
        <gpxx:DisplayColor>White</gpxx:DisplayColor>
      </gpxx:TrackExtension>
    </extensions>
    <trkseg>
      <trkpt lat="51.8923300" lon="7.1877430">
        <ele>114.8620000</ele>
        <time>2013-10-15T08:17:29Z</time>
      </trkpt>
      <trkpt lat="51.8922580" lon="7.1877430">
        <ele>113.0270000</ele>
        <time>2013-10-15T08:17:38Z</time>
      </trkpt>
      <trkpt lat="51.8923020" lon="7.1877080">
        <ele>107.7490000</ele>
        <time>2013-10-15T08:17:42Z</time>
      </trkpt>
      <trkpt lat="51.8923480" lon="7.1876460">
        <ele>104.2040000</ele>
        <time>2013-10-15T08:17:45Z</time>
      </trkpt>
      <trkpt lat="51.8923960" lon="7.1875800">
        <ele>100.5810000</ele>
        <time>2013-10-15T08:17:48Z</time>
      </trkpt>
      <trkpt lat="51.8924290" lon="7.1875520">
        <ele>98.7830000</ele>
        <time>2013-10-15T08:17:50Z</time>
      </trkpt>
      <trkpt lat="51.8925050" lon="7.1875000">
        <ele>94.4380000</ele>
        <time>2013-10-15T08:17:54Z</time>
      </trkpt>
      <trkpt lat="51.8925850" lon="7.1874290">
        <ele>91.2900000</ele>
        <time>2013-10-15T08:17:58Z</time>
      </trkpt>
      <trkpt lat="51.8925980" lon="7.1874170">
        <ele>91.3010000</ele>
        <time>2013-10-15T08:17:59Z</time>
      </trkpt>
      <trkpt lat="51.8926240" lon="7.1873790">
        <ele>89.4900000</ele>
        <time>2013-10-15T08:18:01Z</time>
      </trkpt>
      <trkpt lat="51.8926610" lon="7.1873130">
        <ele>86.1460000</ele>
        <time>2013-10-15T08:18:06Z</time>
      </trkpt>
      <trkpt lat="51.8927070" lon="7.1872560">
        <ele>83.8470000</ele>
        <time>2013-10-15T08:18:11Z</time>
      </trkpt>
      <trkpt lat="51.8927050" lon="7.1872340">
        <ele>80.3560000</ele>
        <time>2013-10-15T08:18:20Z</time>
      </trkpt>
      <trkpt lat="51.8927030" lon="7.1872350">
        <ele>79.5770000</ele>
        <time>2013-10-15T08:18:24Z</time>
      </trkpt>
      <trkpt lat="51.8927020" lon="7.1872350">
        <ele>75.3840000</ele>
        <time>2013-10-15T08:18:39Z</time>
      </trkpt>
      <trkpt lat="51.8927050" lon="7.1872330">
        <ele>71.7850000</ele>
        <time>2013-10-15T08:19:17Z</time>
      </trkpt>
      <trkpt lat="51.8927070" lon="7.1872330">
        <ele>72.7530000</ele>
        <time>2013-10-15T08:19:34Z</time>
      </trkpt>
      <trkpt lat="51.8927530" lon="7.1871010">
        <ele>73.0320000</ele>
        <time>2013-10-15T08:19:39Z</time>
      </trkpt>
      <trkpt lat="51.8931210" lon="7.1865240">
        <ele>73.3260000</ele>
        <time>2013-10-15T08:19:56Z</time>
      </trkpt>
      <trkpt lat="51.8933640" lon="7.1860800">
        <ele>72.9370000</ele>
        <time>2013-10-15T08:20:08Z</time>
      </trkpt>
      <trkpt lat="51.8937630" lon="7.1855280">
        <ele>73.0280000</ele>
        <time>2013-10-15T08:20:22Z</time>
      </trkpt>
      <trkpt lat="51.8943460" lon="7.1847520">
        <ele>72.6910000</ele>
        <time>2013-10-15T08:20:41Z</time>
      </trkpt>
      <trkpt lat="51.8949850" lon="7.1838550">
        <ele>72.4130000</ele>
        <time>2013-10-15T08:21:03Z</time>
      </trkpt>
      <trkpt lat="51.8953100" lon="7.1833820">
        <ele>73.6110000</ele>
        <time>2013-10-15T08:21:18Z</time>
      </trkpt>
      <trkpt lat="51.8953370" lon="7.1833420">
        <ele>73.6640000</ele>
        <time>2013-10-15T08:21:21Z</time>
      </trkpt>
      <trkpt lat="51.8953420" lon="7.1833530">
        <ele>73.7680000</ele>
        <time>2013-10-15T08:21:26Z</time>
      </trkpt>
      <trkpt lat="51.8949810" lon="7.1825430">
        <ele>72.2090000</ele>
        <time>2013-10-15T08:21:41Z</time>
      </trkpt>
      <trkpt lat="51.8944460" lon="7.1813470">
        <ele>70.8800000</ele>
        <time>2013-10-15T08:22:00Z</time>
      </trkpt>
      <trkpt lat="51.8942750" lon="7.1809900">
        <ele>70.6410000</ele>
        <time>2013-10-15T08:22:06Z</time>
      </trkpt>
      <trkpt lat="51.8938620" lon="7.1801080">
        <ele>70.3830000</ele>
        <time>2013-10-15T08:22:21Z</time>
      </trkpt>
      <trkpt lat="51.8935010" lon="7.1792970">
        <ele>71.0130000</ele>
        <time>2013-10-15T08:22:36Z</time>
      </trkpt>
      <trkpt lat="51.8934750" lon="7.1792370">
        <ele>70.9610000</ele>
        <time>2013-10-15T08:22:48Z</time>
      </trkpt>
      <trkpt lat="51.8934750" lon="7.1792370">
        <ele>70.6070000</ele>
        <time>2013-10-15T08:23:06Z</time>
      </trkpt>
      <trkpt lat="51.8935840" lon="7.1790440">
        <ele>70.8300000</ele>
        <time>2013-10-15T08:23:12Z</time>
      </trkpt>
      <trkpt lat="51.8942150" lon="7.1784080">
        <ele>70.4360000</ele>
        <time>2013-10-15T08:23:28Z</time>
      </trkpt>
      <trkpt lat="51.8945980" lon="7.1779660">
        <ele>70.9690000</ele>
        <time>2013-10-15T08:23:39Z</time>
      </trkpt>
      <trkpt lat="51.8952010" lon="7.1769540">
        <ele>70.5020000</ele>
        <time>2013-10-15T08:23:58Z</time>
      </trkpt>
      <trkpt lat="51.8955400" lon="7.1762060">
        <ele>71.3680000</ele>
        <time>2013-10-15T08:24:15Z</time>
      </trkpt>
      <trkpt lat="51.8952700" lon="7.1755120">
        <ele>70.6820000</ele>
        <time>2013-10-15T08:24:28Z</time>
      </trkpt>
      <trkpt lat="51.8949800" lon="7.1747660">
        <ele>71.0230000</ele>
        <time>2013-10-15T08:24:40Z</time>
      </trkpt>
      <trkpt lat="51.8948530" lon="7.1744390">
        <ele>70.7960000</ele>
        <time>2013-10-15T08:24:45Z</time>
      </trkpt>
      <trkpt lat="51.8947540" lon="7.1741860">
        <ele>70.9210000</ele>
        <time>2013-10-15T08:24:49Z</time>
      </trkpt>
      <trkpt lat="51.8946500" lon="7.1737870">
        <ele>71.1630000</ele>
        <time>2013-10-15T08:24:55Z</time>
      </trkpt>
      <trkpt lat="51.8943910" lon="7.1722980">
        <ele>72.5800000</ele>
        <time>2013-10-15T08:25:17Z</time>
      </trkpt>
      <trkpt lat="51.8943260" lon="7.1707670">
        <ele>73.9600000</ele>
        <time>2013-10-15T08:25:38Z</time>
      </trkpt>
      <trkpt lat="51.8942510" lon="7.1689730">
        <ele>73.8310000</ele>
        <time>2013-10-15T08:26:03Z</time>
      </trkpt>
      <trkpt lat="51.8941700" lon="7.1670390">
        <ele>72.4770000</ele>
        <time>2013-10-15T08:26:28Z</time>
      </trkpt>
      <trkpt lat="51.8940840" lon="7.1649810">
        <ele>72.2080000</ele>
        <time>2013-10-15T08:26:54Z</time>
      </trkpt>
      <trkpt lat="51.8939870" lon="7.1633110">
        <ele>71.1870000</ele>
        <time>2013-10-15T08:27:15Z</time>
      </trkpt>
      <trkpt lat="51.8938580" lon="7.1615760">
        <ele>70.1490000</ele>
        <time>2013-10-15T08:27:37Z</time>
      </trkpt>
      <trkpt lat="51.8937970" lon="7.1607500">
        <ele>70.2110000</ele>
        <time>2013-10-15T08:27:52Z</time>
      </trkpt>
      <trkpt lat="51.8935800" lon="7.1606830">
        <ele>69.8070000</ele>
        <time>2013-10-15T08:28:02Z</time>
      </trkpt>
      <trkpt lat="51.8931560" lon="7.1606830">
        <ele>69.4480000</ele>
        <time>2013-10-15T08:28:15Z</time>
      </trkpt>
      <trkpt lat="51.8923360" lon="7.1606400">
        <ele>68.4000000</ele>
        <time>2013-10-15T08:28:33Z</time>
      </trkpt>
      <trkpt lat="51.8922210" lon="7.1603270">
        <ele>68.2410000</ele>
        <time>2013-10-15T08:28:37Z</time>
      </trkpt>
      <trkpt lat="51.8918070" lon="7.1591730">
        <ele>66.6480000</ele>
        <time>2013-10-15T08:28:54Z</time>
      </trkpt>
      <trkpt lat="51.8913990" lon="7.1580460">
        <ele>64.4960000</ele>
        <time>2013-10-15T08:29:10Z</time>
      </trkpt>
      <trkpt lat="51.8909270" lon="7.1566510">
        <ele>62.9510000</ele>
        <time>2013-10-15T08:29:28Z</time>
      </trkpt>
      <trkpt lat="51.8905310" lon="7.1548890">
        <ele>61.5640000</ele>
        <time>2013-10-15T08:29:49Z</time>
      </trkpt>
      <trkpt lat="51.8900950" lon="7.1529090">
        <ele>60.8070000</ele>
        <time>2013-10-15T08:30:13Z</time>
      </trkpt>
      <trkpt lat="51.8897680" lon="7.1514260">
        <ele>60.3070000</ele>
        <time>2013-10-15T08:30:31Z</time>
      </trkpt>
      <trkpt lat="51.8894390" lon="7.1500400">
        <ele>60.2090000</ele>
        <time>2013-10-15T08:30:48Z</time>
      </trkpt>
      <trkpt lat="51.8889520" lon="7.1486900">
        <ele>60.4910000</ele>
        <time>2013-10-15T08:31:07Z</time>
      </trkpt>
      <trkpt lat="51.8884270" lon="7.1472380">
        <ele>60.9930000</ele>
        <time>2013-10-15T08:31:28Z</time>
      </trkpt>
      <trkpt lat="51.8879560" lon="7.1459330">
        <ele>60.8800000</ele>
        <time>2013-10-15T08:31:48Z</time>
      </trkpt>
      <trkpt lat="51.8875700" lon="7.1448650">
        <ele>61.0870000</ele>
        <time>2013-10-15T08:32:04Z</time>
      </trkpt>
      <trkpt lat="51.8872010" lon="7.1438430">
        <ele>60.8150000</ele>
        <time>2013-10-15T08:32:20Z</time>
      </trkpt>
      <trkpt lat="51.8867680" lon="7.1426420">
        <ele>62.0230000</ele>
        <time>2013-10-15T08:32:40Z</time>
      </trkpt>
      <trkpt lat="51.8863810" lon="7.1415710">
        <ele>61.6760000</ele>
        <time>2013-10-15T08:32:58Z</time>
      </trkpt>
      <trkpt lat="51.8858710" lon="7.1401560">
        <ele>61.4030000</ele>
        <time>2013-10-15T08:33:21Z</time>
      </trkpt>
      <trkpt lat="51.8855410" lon="7.1392430">
        <ele>61.9490000</ele>
        <time>2013-10-15T08:33:36Z</time>
      </trkpt>
      <trkpt lat="51.8851750" lon="7.1382290">
        <ele>62.5860000</ele>
        <time>2013-10-15T08:33:53Z</time>
      </trkpt>
      <trkpt lat="51.8848720" lon="7.1373830">
        <ele>63.2370000</ele>
        <time>2013-10-15T08:34:05Z</time>
      </trkpt>
      <trkpt lat="51.8845470" lon="7.1364750">
        <ele>63.8800000</ele>
        <time>2013-10-15T08:34:20Z</time>
      </trkpt>
      <trkpt lat="51.8843030" lon="7.1357930">
        <ele>65.0800000</ele>
        <time>2013-10-15T08:34:32Z</time>
      </trkpt>
      <trkpt lat="51.8840380" lon="7.1350510">
        <ele>65.8210000</ele>
        <time>2013-10-15T08:34:46Z</time>
      </trkpt>
      <trkpt lat="51.8838420" lon="7.1345040">
        <ele>65.1240000</ele>
        <time>2013-10-15T08:34:56Z</time>
      </trkpt>
      <trkpt lat="51.8835060" lon="7.1335620">
        <ele>64.7780000</ele>
        <time>2013-10-15T08:35:11Z</time>
      </trkpt>
      <trkpt lat="51.8830110" lon="7.1321180">
        <ele>64.7200000</ele>
        <time>2013-10-15T08:35:34Z</time>
      </trkpt>
      <trkpt lat="51.8825710" lon="7.1308360">
        <ele>65.9340000</ele>
        <time>2013-10-15T08:35:57Z</time>
      </trkpt>
      <trkpt lat="51.8825460" lon="7.1307630">
        <ele>65.6390000</ele>
        <time>2013-10-15T08:36:11Z</time>
      </trkpt>
      <trkpt lat="51.8824310" lon="7.1304230">
        <ele>64.7130000</ele>
        <time>2013-10-15T08:36:27Z</time>
      </trkpt>
      <trkpt lat="51.8823450" lon="7.1301700">
        <ele>64.4160000</ele>
        <time>2013-10-15T08:36:31Z</time>
      </trkpt>
      <trkpt lat="51.8817820" lon="7.1285060">
        <ele>64.0350000</ele>
        <time>2013-10-15T08:36:57Z</time>
      </trkpt>
      <trkpt lat="51.8816340" lon="7.1280680">
        <ele>64.5000000</ele>
        <time>2013-10-15T08:37:04Z</time>
      </trkpt>
      <trkpt lat="51.8814430" lon="7.1278600">
        <ele>64.0010000</ele>
        <time>2013-10-15T08:37:09Z</time>
      </trkpt>
      <trkpt lat="51.8804110" lon="7.1270860">
        <ele>62.8840000</ele>
        <time>2013-10-15T08:37:33Z</time>
      </trkpt>
      <trkpt lat="51.8796260" lon="7.1263890">
        <ele>62.4780000</ele>
        <time>2013-10-15T08:37:52Z</time>
      </trkpt>
      <trkpt lat="51.8791410" lon="7.1256730">
        <ele>62.0290000</ele>
        <time>2013-10-15T08:38:07Z</time>
      </trkpt>
      <trkpt lat="51.8788350" lon="7.1247020">
        <ele>60.8890000</ele>
        <time>2013-10-15T08:38:22Z</time>
      </trkpt>
      <trkpt lat="51.8782740" lon="7.1235880">
        <ele>61.1650000</ele>
        <time>2013-10-15T08:38:41Z</time>
      </trkpt>
      <trkpt lat="51.8773630" lon="7.1218290">
        <ele>59.8950000</ele>
        <time>2013-10-15T08:39:10Z</time>
      </trkpt>
      <trkpt lat="51.8764680" lon="7.1200990">
        <ele>58.6760000</ele>
        <time>2013-10-15T08:39:38Z</time>
      </trkpt>
      <trkpt lat="51.8762520" lon="7.1196950">
        <ele>59.6500000</ele>
        <time>2013-10-15T08:39:45Z</time>
      </trkpt>
      <trkpt lat="51.8760530" lon="7.1195700">
        <ele>59.1480000</ele>
        <time>2013-10-15T08:39:50Z</time>
      </trkpt>
      <trkpt lat="51.8750050" lon="7.1192640">
        <ele>59.0400000</ele>
        <time>2013-10-15T08:40:13Z</time>
      </trkpt>
      <trkpt lat="51.8738050" lon="7.1189130">
        <ele>58.4530000</ele>
        <time>2013-10-15T08:40:38Z</time>
      </trkpt>
      <trkpt lat="51.8725720" lon="7.1185520">
        <ele>57.2180000</ele>
        <time>2013-10-15T08:41:04Z</time>
      </trkpt>
      <trkpt lat="51.8714030" lon="7.1182100">
        <ele>58.2100000</ele>
        <time>2013-10-15T08:41:29Z</time>
      </trkpt>
      <trkpt lat="51.8703860" lon="7.1179130">
        <ele>57.7760000</ele>
        <time>2013-10-15T08:41:51Z</time>
      </trkpt>
      <trkpt lat="51.8699030" lon="7.1177710">
        <ele>58.8640000</ele>
        <time>2013-10-15T08:42:07Z</time>
      </trkpt>
      <trkpt lat="51.8699030" lon="7.1177710">
        <ele>58.0420000</ele>
        <time>2013-10-15T08:42:47Z</time>
      </trkpt>
      <trkpt lat="51.8698920" lon="7.1174650">
        <ele>58.7330000</ele>
        <time>2013-10-15T08:42:52Z</time>
      </trkpt>
      <trkpt lat="51.8699100" lon="7.1158610">
        <ele>57.7590000</ele>
        <time>2013-10-15T08:43:13Z</time>
      </trkpt>
      <trkpt lat="51.8699340" lon="7.1136870">
        <ele>58.5570000</ele>
        <time>2013-10-15T08:43:40Z</time>
      </trkpt>
      <trkpt lat="51.8699510" lon="7.1121800">
        <ele>57.7930000</ele>
        <time>2013-10-15T08:43:59Z</time>
      </trkpt>
      <trkpt lat="51.8699610" lon="7.1112530">
        <ele>58.5820000</ele>
        <time>2013-10-15T08:44:11Z</time>
      </trkpt>
      <trkpt lat="51.8699740" lon="7.1100850">
        <ele>59.5590000</ele>
        <time>2013-10-15T08:44:28Z</time>
      </trkpt>
      <trkpt lat="51.8701730" lon="7.1101470">
        <ele>60.3430000</ele>
        <time>2013-10-15T08:44:33Z</time>
      </trkpt>
      <trkpt lat="51.8709950" lon="7.1104020">
        <ele>58.8920000</ele>
        <time>2013-10-15T08:44:52Z</time>
      </trkpt>
      <trkpt lat="51.8720190" lon="7.1107200">
        <ele>59.6390000</ele>
        <time>2013-10-15T08:45:14Z</time>
      </trkpt>
      <trkpt lat="51.8723670" lon="7.1108280">
        <ele>58.8750000</ele>
        <time>2013-10-15T08:45:23Z</time>
      </trkpt>
      <trkpt lat="51.8729040" lon="7.1113950">
        <ele>59.2720000</ele>
        <time>2013-10-15T08:45:38Z</time>
      </trkpt>
      <trkpt lat="51.8729960" lon="7.1115070">
        <ele>59.6910000</ele>
        <time>2013-10-15T08:45:48Z</time>
      </trkpt>
      <trkpt lat="51.8729960" lon="7.1115070">
        <ele>59.6370000</ele>
        <time>2013-10-15T08:47:26Z</time>
      </trkpt>
      <trkpt lat="51.8729340" lon="7.1114320">
        <ele>59.1820000</ele>
        <time>2013-10-15T08:47:30Z</time>
      </trkpt>
      <trkpt lat="51.8725380" lon="7.1109490">
        <ele>58.1280000</ele>
        <time>2013-10-15T08:47:42Z</time>
      </trkpt>
      <trkpt lat="51.8724130" lon="7.1108420">
        <ele>58.1320000</ele>
        <time>2013-10-15T08:47:45Z</time>
      </trkpt>
      <trkpt lat="51.8715640" lon="7.1105790">
        <ele>57.8490000</ele>
        <time>2013-10-15T08:48:04Z</time>
      </trkpt>
      <trkpt lat="51.8713270" lon="7.1105050">
        <ele>59.0640000</ele>
        <time>2013-10-15T08:48:09Z</time>
      </trkpt>
      <trkpt lat="51.8704210" lon="7.1102240">
        <ele>59.0050000</ele>
        <time>2013-10-15T08:48:29Z</time>
      </trkpt>
      <trkpt lat="51.8700310" lon="7.1101030">
        <ele>59.1030000</ele>
        <time>2013-10-15T08:48:43Z</time>
      </trkpt>
      <trkpt lat="51.8697390" lon="7.1099830">
        <ele>60.0270000</ele>
        <time>2013-10-15T08:48:55Z</time>
      </trkpt>
      <trkpt lat="51.8695150" lon="7.1098850">
        <ele>59.4840000</ele>
        <time>2013-10-15T08:49:22Z</time>
      </trkpt>
      <trkpt lat="51.8684580" lon="7.1094230">
        <ele>58.3250000</ele>
        <time>2013-10-15T08:49:45Z</time>
      </trkpt>
      <trkpt lat="51.8675450" lon="7.1090240">
        <ele>57.3330000</ele>
        <time>2013-10-15T08:50:05Z</time>
      </trkpt>
      <trkpt lat="51.8669720" lon="7.1087740">
        <ele>58.6070000</ele>
        <time>2013-10-15T08:50:17Z</time>
      </trkpt>
      <trkpt lat="51.8658610" lon="7.1082680">
        <ele>58.2880000</ele>
        <time>2013-10-15T08:50:40Z</time>
      </trkpt>
      <trkpt lat="51.8649120" lon="7.1078020">
        <ele>57.3040000</ele>
        <time>2013-10-15T08:51:00Z</time>
      </trkpt>
      <trkpt lat="51.8638530" lon="7.1072820">
        <ele>57.3400000</ele>
        <time>2013-10-15T08:51:22Z</time>
      </trkpt>
      <trkpt lat="51.8629290" lon="7.1068290">
        <ele>56.1690000</ele>
        <time>2013-10-15T08:51:41Z</time>
      </trkpt>
      <trkpt lat="51.8617340" lon="7.1062430">
        <ele>56.1990000</ele>
        <time>2013-10-15T08:52:06Z</time>
      </trkpt>
      <trkpt lat="51.8615810" lon="7.1061670">
        <ele>57.3740000</ele>
        <time>2013-10-15T08:52:15Z</time>
      </trkpt>
      <trkpt lat="51.8615810" lon="7.1061670">
        <ele>59.0590000</ele>
        <time>2013-10-15T08:53:11Z</time>
      </trkpt>
      <trkpt lat="51.8615200" lon="7.1061370">
        <ele>56.0020000</ele>
        <time>2013-10-15T08:53:15Z</time>
      </trkpt>
      <trkpt lat="51.8611690" lon="7.1059560">
        <ele>55.9940000</ele>
        <time>2013-10-15T08:53:21Z</time>
      </trkpt>
      <trkpt lat="51.8603100" lon="7.1055110">
        <ele>55.9470000</ele>
        <time>2013-10-15T08:53:41Z</time>
      </trkpt>
      <trkpt lat="51.8593960" lon="7.1051330">
        <ele>55.7170000</ele>
        <time>2013-10-15T08:54:01Z</time>
      </trkpt>
      <trkpt lat="51.8588880" lon="7.1049260">
        <ele>55.0170000</ele>
        <time>2013-10-15T08:54:13Z</time>
      </trkpt>
      <trkpt lat="51.8577950" lon="7.1044790">
        <ele>55.7460000</ele>
        <time>2013-10-15T08:54:37Z</time>
      </trkpt>
      <trkpt lat="51.8569190" lon="7.1041280">
        <ele>55.3610000</ele>
        <time>2013-10-15T08:54:56Z</time>
      </trkpt>
      <trkpt lat="51.8557810" lon="7.1036800">
        <ele>55.3360000</ele>
        <time>2013-10-15T08:55:21Z</time>
      </trkpt>
      <trkpt lat="51.8548870" lon="7.1033280">
        <ele>55.8900000</ele>
        <time>2013-10-15T08:55:41Z</time>
      </trkpt>
      <trkpt lat="51.8535630" lon="7.1028550">
        <ele>55.0920000</ele>
        <time>2013-10-15T08:56:09Z</time>
      </trkpt>
      <trkpt lat="51.8521630" lon="7.1023690">
        <ele>55.1660000</ele>
        <time>2013-10-15T08:56:38Z</time>
      </trkpt>
      <trkpt lat="51.8508210" lon="7.1019130">
        <ele>54.6950000</ele>
        <time>2013-10-15T08:57:06Z</time>
      </trkpt>
      <trkpt lat="51.8506370" lon="7.1018520">
        <ele>54.9850000</ele>
        <time>2013-10-15T08:57:10Z</time>
      </trkpt>
      <trkpt lat="51.8504850" lon="7.1018010">
        <ele>54.8350000</ele>
        <time>2013-10-15T08:57:13Z</time>
      </trkpt>
      <trkpt lat="51.8499760" lon="7.1016310">
        <ele>54.8650000</ele>
        <time>2013-10-15T08:57:24Z</time>
      </trkpt>
      <trkpt lat="51.8497650" lon="7.1015590">
        <ele>54.8530000</ele>
        <time>2013-10-15T08:57:28Z</time>
      </trkpt>
      <trkpt lat="51.8489440" lon="7.1012760">
        <ele>54.6900000</ele>
        <time>2013-10-15T08:57:45Z</time>
      </trkpt>
      <trkpt lat="51.8487460" lon="7.1012080">
        <ele>54.9070000</ele>
        <time>2013-10-15T08:57:49Z</time>
      </trkpt>
      <trkpt lat="51.8486160" lon="7.1011640">
        <ele>54.5570000</ele>
        <time>2013-10-15T08:57:52Z</time>
      </trkpt>
      <trkpt lat="51.8486020" lon="7.1011590">
        <ele>54.6980000</ele>
        <time>2013-10-15T08:57:55Z</time>
      </trkpt>
      <trkpt lat="51.8484310" lon="7.1010730">
        <ele>54.4280000</ele>
        <time>2013-10-15T08:57:57Z</time>
      </trkpt>
      <trkpt lat="51.8482130" lon="7.1009140">
        <ele>54.7800000</ele>
        <time>2013-10-15T08:58:01Z</time>
      </trkpt>
      <trkpt lat="51.8474110" lon="7.1003790">
        <ele>54.5970000</ele>
        <time>2013-10-15T08:58:19Z</time>
      </trkpt>
      <trkpt lat="51.8470180" lon="7.1001080">
        <ele>56.9270000</ele>
        <time>2013-10-15T08:58:29Z</time>
      </trkpt>
      <trkpt lat="51.8466850" lon="7.0998160">
        <ele>56.0280000</ele>
        <time>2013-10-15T08:58:40Z</time>
      </trkpt>
      <trkpt lat="51.8461320" lon="7.0991330">
        <ele>55.7940000</ele>
        <time>2013-10-15T08:58:57Z</time>
      </trkpt>
      <trkpt lat="51.8453260" lon="7.0984980">
        <ele>54.8140000</ele>
        <time>2013-10-15T08:59:17Z</time>
      </trkpt>
      <trkpt lat="51.8446730" lon="7.0980170">
        <ele>56.3460000</ele>
        <time>2013-10-15T08:59:36Z</time>
      </trkpt>
      <trkpt lat="51.8444460" lon="7.0978450">
        <ele>55.8170000</ele>
        <time>2013-10-15T08:59:42Z</time>
      </trkpt>
      <trkpt lat="51.8441310" lon="7.0976030">
        <ele>56.0860000</ele>
        <time>2013-10-15T08:59:50Z</time>
      </trkpt>
      <trkpt lat="51.8435240" lon="7.0971660">
        <ele>56.3960000</ele>
        <time>2013-10-15T09:00:06Z</time>
      </trkpt>
      <trkpt lat="51.8425380" lon="7.0964550">
        <ele>56.9400000</ele>
        <time>2013-10-15T09:00:30Z</time>
      </trkpt>
      <trkpt lat="51.8423250" lon="7.0963010">
        <ele>57.3760000</ele>
        <time>2013-10-15T09:00:35Z</time>
      </trkpt>
      <trkpt lat="51.8421960" lon="7.0962090">
        <ele>58.4680000</ele>
        <time>2013-10-15T09:00:38Z</time>
      </trkpt>
      <trkpt lat="51.8411210" lon="7.0954470">
        <ele>57.1960000</ele>
        <time>2013-10-15T09:01:03Z</time>
      </trkpt>
      <trkpt lat="51.8402010" lon="7.0949940">
        <ele>59.0730000</ele>
        <time>2013-10-15T09:01:24Z</time>
      </trkpt>
      <trkpt lat="51.8399980" lon="7.0949000">
        <ele>59.2750000</ele>
        <time>2013-10-15T09:01:37Z</time>
      </trkpt>
      <trkpt lat="51.8399980" lon="7.0949000">
        <ele>59.4660000</ele>
        <time>2013-10-15T09:01:58Z</time>
      </trkpt>
      <trkpt lat="51.8399890" lon="7.0945710">
        <ele>58.9030000</ele>
        <time>2013-10-15T09:02:04Z</time>
      </trkpt>
      <trkpt lat="51.8401170" lon="7.0942080">
        <ele>58.7070000</ele>
        <time>2013-10-15T09:02:10Z</time>
      </trkpt>
      <trkpt lat="51.8405100" lon="7.0934510">
        <ele>59.1700000</ele>
        <time>2013-10-15T09:02:26Z</time>
      </trkpt>
      <trkpt lat="51.8405100" lon="7.0934510">
        <ele>58.9330000</ele>
        <time>2013-10-15T09:02:35Z</time>
      </trkpt>
      <trkpt lat="51.8404910" lon="7.0934770">
        <ele>59.1570000</ele>
        <time>2013-10-15T09:02:40Z</time>
      </trkpt>
      <trkpt lat="51.8403360" lon="7.0929380">
        <ele>58.7780000</ele>
        <time>2013-10-15T09:02:47Z</time>
      </trkpt>
      <trkpt lat="51.8402310" lon="7.0925750">
        <ele>58.8650000</ele>
        <time>2013-10-15T09:02:53Z</time>
      </trkpt>
      <trkpt lat="51.8398820" lon="7.0913630">
        <ele>59.6920000</ele>
        <time>2013-10-15T09:03:12Z</time>
      </trkpt>
      <trkpt lat="51.8395550" lon="7.0901980">
        <ele>60.9750000</ele>
        <time>2013-10-15T09:03:31Z</time>
      </trkpt>
      <trkpt lat="51.8393390" lon="7.0894970">
        <ele>61.9630000</ele>
        <time>2013-10-15T09:03:43Z</time>
      </trkpt>
      <trkpt lat="51.8391890" lon="7.0889560">
        <ele>62.8990000</ele>
        <time>2013-10-15T09:03:52Z</time>
      </trkpt>
      <trkpt lat="51.8391520" lon="7.0888210">
        <ele>62.5630000</ele>
        <time>2013-10-15T09:03:54Z</time>
      </trkpt>
      <trkpt lat="51.8389790" lon="7.0877080">
        <ele>64.5980000</ele>
        <time>2013-10-15T09:04:11Z</time>
      </trkpt>
      <trkpt lat="51.8387780" lon="7.0860290">
        <ele>66.9420000</ele>
        <time>2013-10-15T09:04:37Z</time>
      </trkpt>
      <trkpt lat="51.8385650" lon="7.0845020">
        <ele>67.2640000</ele>
        <time>2013-10-15T09:04:58Z</time>
      </trkpt>
      <trkpt lat="51.8384890" lon="7.0837590">
        <ele>68.0990000</ele>
        <time>2013-10-15T09:05:09Z</time>
      </trkpt>
      <trkpt lat="51.8382770" lon="7.0827160">
        <ele>71.4340000</ele>
        <time>2013-10-15T09:05:26Z</time>
      </trkpt>
      <trkpt lat="51.8379690" lon="7.0817900">
        <ele>73.4440000</ele>
        <time>2013-10-15T09:05:44Z</time>
      </trkpt>
      <trkpt lat="51.8376990" lon="7.0809790">
        <ele>73.4020000</ele>
        <time>2013-10-15T09:05:57Z</time>
      </trkpt>
      <trkpt lat="51.8376100" lon="7.0807140">
        <ele>73.0750000</ele>
        <time>2013-10-15T09:06:01Z</time>
      </trkpt>
      <trkpt lat="51.8372920" lon="7.0798110">
        <ele>73.8220000</ele>
        <time>2013-10-15T09:06:16Z</time>
      </trkpt>
      <trkpt lat="51.8369880" lon="7.0791600">
        <ele>76.2790000</ele>
        <time>2013-10-15T09:06:30Z</time>
      </trkpt>
      <trkpt lat="51.8363930" lon="7.0782440">
        <ele>79.3860000</ele>
        <time>2013-10-15T09:06:54Z</time>
      </trkpt>
      <trkpt lat="51.8361790" lon="7.0779140">
        <ele>82.1350000</ele>
        <time>2013-10-15T09:07:10Z</time>
      </trkpt>
      <trkpt lat="51.8361790" lon="7.0779140">
        <ele>82.1850000</ele>
        <time>2013-10-15T09:07:43Z</time>
      </trkpt>
      <trkpt lat="51.8363300" lon="7.0781460">
        <ele>81.0230000</ele>
        <time>2013-10-15T09:07:58Z</time>
      </trkpt>
      <trkpt lat="51.8374210" lon="7.0773730">
        <ele>82.6620000</ele>
        <time>2013-10-15T09:08:21Z</time>
      </trkpt>
      <trkpt lat="51.8379340" lon="7.0771040">
        <ele>80.0050000</ele>
        <time>2013-10-15T09:08:39Z</time>
      </trkpt>
      <trkpt lat="51.8379150" lon="7.0771110">
        <ele>80.7250000</ele>
        <time>2013-10-15T09:08:57Z</time>
      </trkpt>
      <trkpt lat="51.8377730" lon="7.0767160">
        <ele>79.6620000</ele>
        <time>2013-10-15T09:09:07Z</time>
      </trkpt>
      <trkpt lat="51.8379930" lon="7.0761760">
        <ele>77.8980000</ele>
        <time>2013-10-15T09:09:19Z</time>
      </trkpt>
      <trkpt lat="51.8380060" lon="7.0761440">
        <ele>77.1400000</ele>
        <time>2013-10-15T09:09:46Z</time>
      </trkpt>
      <trkpt lat="51.8381640" lon="7.0758120">
        <ele>75.1570000</ele>
        <time>2013-10-15T09:13:38Z</time>
      </trkpt>
      <trkpt lat="51.8385120" lon="7.0751120">
        <ele>75.5390000</ele>
        <time>2013-10-15T09:13:54Z</time>
      </trkpt>
      <trkpt lat="51.8386790" lon="7.0745790">
        <ele>77.2130000</ele>
        <time>2013-10-15T09:14:08Z</time>
      </trkpt>
      <trkpt lat="51.8387980" lon="7.0742070">
        <ele>79.1340000</ele>
        <time>2013-10-15T09:14:22Z</time>
      </trkpt>
      <trkpt lat="51.8390240" lon="7.0737090">
        <ele>77.5570000</ele>
        <time>2013-10-15T09:14:33Z</time>
      </trkpt>
      <trkpt lat="51.8393040" lon="7.0731390">
        <ele>76.3720000</ele>
        <time>2013-10-15T09:14:47Z</time>
      </trkpt>
      <trkpt lat="51.8396460" lon="7.0724750">
        <ele>77.0550000</ele>
        <time>2013-10-15T09:15:03Z</time>
      </trkpt>
      <trkpt lat="51.8399560" lon="7.0720160">
        <ele>78.9220000</ele>
        <time>2013-10-15T09:15:18Z</time>
      </trkpt>
      <trkpt lat="51.8402030" lon="7.0716140">
        <ele>80.9900000</ele>
        <time>2013-10-15T09:15:33Z</time>
      </trkpt>
      <trkpt lat="51.8401850" lon="7.0716210">
        <ele>81.3520000</ele>
        <time>2013-10-15T09:15:59Z</time>
      </trkpt>
      <trkpt lat="51.8405160" lon="7.0710190">
        <ele>81.6560000</ele>
        <time>2013-10-15T09:16:18Z</time>
      </trkpt>
      <trkpt lat="51.8408640" lon="7.0704060">
        <ele>83.1730000</ele>
        <time>2013-10-15T09:16:35Z</time>
      </trkpt>
      <trkpt lat="51.8412330" lon="7.0697890">
        <ele>84.2560000</ele>
        <time>2013-10-15T09:16:50Z</time>
      </trkpt>
      <trkpt lat="51.8415920" lon="7.0692300">
        <ele>84.5070000</ele>
        <time>2013-10-15T09:17:03Z</time>
      </trkpt>
      <trkpt lat="51.8419190" lon="7.0686600">
        <ele>85.7620000</ele>
        <time>2013-10-15T09:17:19Z</time>
      </trkpt>
      <trkpt lat="51.8419430" lon="7.0686140">
        <ele>85.4660000</ele>
        <time>2013-10-15T09:17:52Z</time>
      </trkpt>
      <trkpt lat="51.8419350" lon="7.0686060">
        <ele>86.1650000</ele>
        <time>2013-10-15T09:20:43Z</time>
      </trkpt>
      <trkpt lat="51.8420160" lon="7.0684720">
        <ele>86.4980000</ele>
        <time>2013-10-15T09:20:50Z</time>
      </trkpt>
      <trkpt lat="51.8423300" lon="7.0680780">
        <ele>86.4080000</ele>
        <time>2013-10-15T09:21:06Z</time>
      </trkpt>
      <trkpt lat="51.8425440" lon="7.0679520">
        <ele>86.9300000</ele>
        <time>2013-10-15T09:21:19Z</time>
      </trkpt>
      <trkpt lat="51.8425640" lon="7.0679630">
        <ele>85.9050000</ele>
        <time>2013-10-15T09:21:44Z</time>
      </trkpt>
      <trkpt lat="51.8428170" lon="7.0683730">
        <ele>83.6560000</ele>
        <time>2013-10-15T09:21:54Z</time>
      </trkpt>
      <trkpt lat="51.8432440" lon="7.0691250">
        <ele>80.1360000</ele>
        <time>2013-10-15T09:22:08Z</time>
      </trkpt>
      <trkpt lat="51.8432820" lon="7.0691950">
        <ele>80.0760000</ele>
        <time>2013-10-15T09:22:09Z</time>
      </trkpt>
      <trkpt lat="51.8435810" lon="7.0697450">
        <ele>77.8720000</ele>
        <time>2013-10-15T09:22:21Z</time>
      </trkpt>
      <trkpt lat="51.8439890" lon="7.0704890">
        <ele>75.7290000</ele>
        <time>2013-10-15T09:22:33Z</time>
      </trkpt>
      <trkpt lat="51.8441400" lon="7.0707670">
        <ele>74.2180000</ele>
        <time>2013-10-15T09:22:38Z</time>
      </trkpt>
      <trkpt lat="51.8442230" lon="7.0709190">
        <ele>73.1420000</ele>
        <time>2013-10-15T09:22:40Z</time>
      </trkpt>
      <trkpt lat="51.8446290" lon="7.0716600">
        <ele>70.0850000</ele>
        <time>2013-10-15T09:22:49Z</time>
      </trkpt>
      <trkpt lat="51.8449180" lon="7.0722440">
        <ele>68.4060000</ele>
        <time>2013-10-15T09:22:56Z</time>
      </trkpt>
      <trkpt lat="51.8452870" lon="7.0731980">
        <ele>66.6620000</ele>
        <time>2013-10-15T09:23:08Z</time>
      </trkpt>
      <trkpt lat="51.8453410" lon="7.0733500">
        <ele>65.4820000</ele>
        <time>2013-10-15T09:23:10Z</time>
      </trkpt>
      <trkpt lat="51.8457040" lon="7.0739630">
        <ele>64.0270000</ele>
        <time>2013-10-15T09:23:18Z</time>
      </trkpt>
      <trkpt lat="51.8458560" lon="7.0741650">
        <ele>63.7000000</ele>
        <time>2013-10-15T09:23:23Z</time>
      </trkpt>
      <trkpt lat="51.8463870" lon="7.0744630">
        <ele>62.4120000</ele>
        <time>2013-10-15T09:23:32Z</time>
      </trkpt>
      <trkpt lat="51.8466050" lon="7.0744980">
        <ele>62.3370000</ele>
        <time>2013-10-15T09:23:36Z</time>
      </trkpt>
      <trkpt lat="51.8468890" lon="7.0744700">
        <ele>61.3920000</ele>
        <time>2013-10-15T09:23:41Z</time>
      </trkpt>
      <trkpt lat="51.8472890" lon="7.0743080">
        <ele>60.6410000</ele>
        <time>2013-10-15T09:23:49Z</time>
      </trkpt>
      <trkpt lat="51.8476450" lon="7.0741540">
        <ele>60.2190000</ele>
        <time>2013-10-15T09:24:01Z</time>
      </trkpt>
      <trkpt lat="51.8476450" lon="7.0741540">
        <ele>61.1310000</ele>
        <time>2013-10-15T09:24:18Z</time>
      </trkpt>
      <trkpt lat="51.8479920" lon="7.0740190">
        <ele>59.7870000</ele>
        <time>2013-10-15T09:24:30Z</time>
      </trkpt>
      <trkpt lat="51.8486690" lon="7.0738650">
        <ele>59.5840000</ele>
        <time>2013-10-15T09:24:44Z</time>
      </trkpt>
      <trkpt lat="51.8494960" lon="7.0740770">
        <ele>58.8150000</ele>
        <time>2013-10-15T09:24:59Z</time>
      </trkpt>
      <trkpt lat="51.8501610" lon="7.0741610">
        <ele>58.9420000</ele>
        <time>2013-10-15T09:25:11Z</time>
      </trkpt>
      <trkpt lat="51.8511210" lon="7.0741220">
        <ele>59.5090000</ele>
        <time>2013-10-15T09:25:29Z</time>
      </trkpt>
      <trkpt lat="51.8523740" lon="7.0740710">
        <ele>59.9700000</ele>
        <time>2013-10-15T09:25:53Z</time>
      </trkpt>
      <trkpt lat="51.8532180" lon="7.0740360">
        <ele>59.5230000</ele>
        <time>2013-10-15T09:26:09Z</time>
      </trkpt>
      <trkpt lat="51.8543020" lon="7.0739920">
        <ele>59.1720000</ele>
        <time>2013-10-15T09:26:30Z</time>
      </trkpt>
      <trkpt lat="51.8552820" lon="7.0739510">
        <ele>59.7200000</ele>
        <time>2013-10-15T09:26:52Z</time>
      </trkpt>
      <trkpt lat="51.8552820" lon="7.0739510">
        <ele>60.2450000</ele>
        <time>2013-10-15T09:27:13Z</time>
      </trkpt>
      <trkpt lat="51.8552820" lon="7.0739510">
        <ele>59.9360000</ele>
        <time>2013-10-15T09:27:36Z</time>
      </trkpt>
      <trkpt lat="51.8552970" lon="7.0739510">
        <ele>60.6450000</ele>
        <time>2013-10-15T09:27:41Z</time>
      </trkpt>
      <trkpt lat="51.8554760" lon="7.0738430">
        <ele>60.3420000</ele>
        <time>2013-10-15T09:27:44Z</time>
      </trkpt>
      <trkpt lat="51.8556400" lon="7.0737820">
        <ele>59.6820000</ele>
        <time>2013-10-15T09:27:48Z</time>
      </trkpt>
      <trkpt lat="51.8566100" lon="7.0734750">
        <ele>59.1930000</ele>
        <time>2013-10-15T09:28:09Z</time>
      </trkpt>
      <trkpt lat="51.8577570" lon="7.0731120">
        <ele>58.8310000</ele>
        <time>2013-10-15T09:28:34Z</time>
      </trkpt>
      <trkpt lat="51.8589170" lon="7.0727340">
        <ele>59.2160000</ele>
        <time>2013-10-15T09:28:59Z</time>
      </trkpt>
      <trkpt lat="51.8591060" lon="7.0724770">
        <ele>59.6850000</ele>
        <time>2013-10-15T09:29:05Z</time>
      </trkpt>
      <trkpt lat="51.8598000" lon="7.0713830">
        <ele>59.9620000</ele>
        <time>2013-10-15T09:29:27Z</time>
      </trkpt>
      <trkpt lat="51.8604590" lon="7.0703580">
        <ele>59.5640000</ele>
        <time>2013-10-15T09:29:47Z</time>
      </trkpt>
      <trkpt lat="51.8610970" lon="7.0693790">
        <ele>59.6570000</ele>
        <time>2013-10-15T09:30:06Z</time>
      </trkpt>
      <trkpt lat="51.8618220" lon="7.0682680">
        <ele>59.8870000</ele>
        <time>2013-10-15T09:30:28Z</time>
      </trkpt>
      <trkpt lat="51.8625790" lon="7.0671050">
        <ele>59.3300000</ele>
        <time>2013-10-15T09:30:51Z</time>
      </trkpt>
      <trkpt lat="51.8632270" lon="7.0664050">
        <ele>58.9860000</ele>
        <time>2013-10-15T09:31:08Z</time>
      </trkpt>
      <trkpt lat="51.8638460" lon="7.0656760">
        <ele>59.5630000</ele>
        <time>2013-10-15T09:31:25Z</time>
      </trkpt>
      <trkpt lat="51.8639230" lon="7.0654960">
        <ele>59.3240000</ele>
        <time>2013-10-15T09:31:38Z</time>
      </trkpt>
      <trkpt lat="51.8639230" lon="7.0654960">
        <ele>59.1980000</ele>
        <time>2013-10-15T09:32:59Z</time>
      </trkpt>
      <trkpt lat="51.8644730" lon="7.0653460">
        <ele>58.8330000</ele>
        <time>2013-10-15T09:33:11Z</time>
      </trkpt>
      <trkpt lat="51.8652650" lon="7.0649840">
        <ele>58.6230000</ele>
        <time>2013-10-15T09:33:30Z</time>
      </trkpt>
      <trkpt lat="51.8662970" lon="7.0645110">
        <ele>58.3150000</ele>
        <time>2013-10-15T09:33:53Z</time>
      </trkpt>
      <trkpt lat="51.8669620" lon="7.0642070">
        <ele>58.9770000</ele>
        <time>2013-10-15T09:34:09Z</time>
      </trkpt>
      <trkpt lat="51.8674820" lon="7.0639690">
        <ele>59.4340000</ele>
        <time>2013-10-15T09:34:23Z</time>
      </trkpt>
      <trkpt lat="51.8675390" lon="7.0639430">
        <ele>59.4870000</ele>
        <time>2013-10-15T09:34:35Z</time>
      </trkpt>
      <trkpt lat="51.8677960" lon="7.0642360">
        <ele>58.9610000</ele>
        <time>2013-10-15T09:36:02Z</time>
      </trkpt>
      <trkpt lat="51.8683340" lon="7.0652050">
        <ele>58.7790000</ele>
        <time>2013-10-15T09:36:21Z</time>
      </trkpt>
      <trkpt lat="51.8690170" lon="7.0664370">
        <ele>58.7990000</ele>
        <time>2013-10-15T09:36:43Z</time>
      </trkpt>
      <trkpt lat="51.8697410" lon="7.0677400">
        <ele>59.4240000</ele>
        <time>2013-10-15T09:37:07Z</time>
      </trkpt>
      <trkpt lat="51.8704520" lon="7.0690220">
        <ele>58.1880000</ele>
        <time>2013-10-15T09:37:29Z</time>
      </trkpt>
      <trkpt lat="51.8710910" lon="7.0701730">
        <ele>58.0180000</ele>
        <time>2013-10-15T09:37:50Z</time>
      </trkpt>
      <trkpt lat="51.8717940" lon="7.0714390">
        <ele>57.7030000</ele>
        <time>2013-10-15T09:38:13Z</time>
      </trkpt>
      <trkpt lat="51.8724280" lon="7.0725810">
        <ele>57.7190000</ele>
        <time>2013-10-15T09:38:34Z</time>
      </trkpt>
      <trkpt lat="51.8730440" lon="7.0736960">
        <ele>58.3360000</ele>
        <time>2013-10-15T09:38:54Z</time>
      </trkpt>
      <trkpt lat="51.8734340" lon="7.0745590">
        <ele>58.3240000</ele>
        <time>2013-10-15T09:39:10Z</time>
      </trkpt>
      <trkpt lat="51.8737490" lon="7.0752590">
        <ele>58.8300000</ele>
        <time>2013-10-15T09:39:24Z</time>
      </trkpt>
      <trkpt lat="51.8738150" lon="7.0754050">
        <ele>58.9490000</ele>
        <time>2013-10-15T09:39:35Z</time>
      </trkpt>
      <trkpt lat="51.8738150" lon="7.0754050">
        <ele>58.8070000</ele>
        <time>2013-10-15T09:40:32Z</time>
      </trkpt>
      <trkpt lat="51.8738150" lon="7.0754050">
        <ele>59.0390000</ele>
        <time>2013-10-15T09:40:38Z</time>
      </trkpt>
      <trkpt lat="51.8740130" lon="7.0753870">
        <ele>58.6270000</ele>
        <time>2013-10-15T09:40:44Z</time>
      </trkpt>
      <trkpt lat="51.8747260" lon="7.0751200">
        <ele>57.9320000</ele>
        <time>2013-10-15T09:41:04Z</time>
      </trkpt>
      <trkpt lat="51.8755160" lon="7.0748250">
        <ele>58.2350000</ele>
        <time>2013-10-15T09:41:22Z</time>
      </trkpt>
      <trkpt lat="51.8764600" lon="7.0744720">
        <ele>58.2780000</ele>
        <time>2013-10-15T09:41:43Z</time>
      </trkpt>
      <trkpt lat="51.8774340" lon="7.0741080">
        <ele>58.3490000</ele>
        <time>2013-10-15T09:42:04Z</time>
      </trkpt>
      <trkpt lat="51.8780030" lon="7.0738950">
        <ele>58.4920000</ele>
        <time>2013-10-15T09:42:17Z</time>
      </trkpt>
      <trkpt lat="51.8789720" lon="7.0735320">
        <ele>59.0990000</ele>
        <time>2013-10-15T09:42:39Z</time>
      </trkpt>
      <trkpt lat="51.8796990" lon="7.0731430">
        <ele>59.1830000</ele>
        <time>2013-10-15T09:42:56Z</time>
      </trkpt>
      <trkpt lat="51.8800870" lon="7.0726710">
        <ele>59.1450000</ele>
        <time>2013-10-15T09:43:09Z</time>
      </trkpt>
      <trkpt lat="51.8805760" lon="7.0720250">
        <ele>59.1000000</ele>
        <time>2013-10-15T09:43:24Z</time>
      </trkpt>
      <trkpt lat="51.8810170" lon="7.0714420">
        <ele>59.3810000</ele>
        <time>2013-10-15T09:43:41Z</time>
      </trkpt>
      <trkpt lat="51.8810170" lon="7.0714420">
        <ele>59.6060000</ele>
        <time>2013-10-15T09:44:10Z</time>
      </trkpt>
      <trkpt lat="51.8810170" lon="7.0714420">
        <ele>59.1350000</ele>
        <time>2013-10-15T09:44:19Z</time>
      </trkpt>
      <trkpt lat="51.8810960" lon="7.0717770">
        <ele>58.9840000</ele>
        <time>2013-10-15T09:44:25Z</time>
      </trkpt>
      <trkpt lat="51.8810250" lon="7.0729980">
        <ele>57.1510000</ele>
        <time>2013-10-15T09:44:42Z</time>
      </trkpt>
      <trkpt lat="51.8810010" lon="7.0745950">
        <ele>57.2120000</ele>
        <time>2013-10-15T09:45:04Z</time>
      </trkpt>
      <trkpt lat="51.8809790" lon="7.0761030">
        <ele>57.6010000</ele>
        <time>2013-10-15T09:45:24Z</time>
      </trkpt>
      <trkpt lat="51.8809520" lon="7.0779290">
        <ele>57.6190000</ele>
        <time>2013-10-15T09:45:47Z</time>
      </trkpt>
      <trkpt lat="51.8809280" lon="7.0796120">
        <ele>58.6660000</ele>
        <time>2013-10-15T09:46:09Z</time>
      </trkpt>
      <trkpt lat="51.8809020" lon="7.0813800">
        <ele>58.7160000</ele>
        <time>2013-10-15T09:46:33Z</time>
      </trkpt>
      <trkpt lat="51.8808760" lon="7.0831040">
        <ele>58.8610000</ele>
        <time>2013-10-15T09:46:57Z</time>
      </trkpt>
      <trkpt lat="51.8808540" lon="7.0833860">
        <ele>59.0340000</ele>
        <time>2013-10-15T09:47:01Z</time>
      </trkpt>
      <trkpt lat="51.8806150" lon="7.0843500">
        <ele>59.6690000</ele>
        <time>2013-10-15T09:47:17Z</time>
      </trkpt>
      <trkpt lat="51.8803080" lon="7.0854590">
        <ele>59.7430000</ele>
        <time>2013-10-15T09:47:34Z</time>
      </trkpt>
      <trkpt lat="51.8800050" lon="7.0865570">
        <ele>59.9640000</ele>
        <time>2013-10-15T09:47:51Z</time>
      </trkpt>
      <trkpt lat="51.8796760" lon="7.0877490">
        <ele>59.6340000</ele>
        <time>2013-10-15T09:48:09Z</time>
      </trkpt>
      <trkpt lat="51.8793910" lon="7.0887820">
        <ele>61.4780000</ele>
        <time>2013-10-15T09:48:27Z</time>
      </trkpt>
      <trkpt lat="51.8792600" lon="7.0892560">
        <ele>62.5690000</ele>
        <time>2013-10-15T09:48:44Z</time>
      </trkpt>
      <trkpt lat="51.8792600" lon="7.0892560">
        <ele>63.0120000</ele>
        <time>2013-10-15T09:49:41Z</time>
      </trkpt>
      <trkpt lat="51.8795340" lon="7.0897390">
        <ele>63.1590000</ele>
        <time>2013-10-15T09:49:59Z</time>
      </trkpt>
      <trkpt lat="51.8800570" lon="7.0902990">
        <ele>63.9380000</ele>
        <time>2013-10-15T09:50:15Z</time>
      </trkpt>
      <trkpt lat="51.8809770" lon="7.0912850">
        <ele>64.0680000</ele>
        <time>2013-10-15T09:50:39Z</time>
      </trkpt>
      <trkpt lat="51.8823800" lon="7.0927890">
        <ele>63.3810000</ele>
        <time>2013-10-15T09:51:14Z</time>
      </trkpt>
      <trkpt lat="51.8826090" lon="7.0930350">
        <ele>64.0750000</ele>
        <time>2013-10-15T09:51:20Z</time>
      </trkpt>
      <trkpt lat="51.8834300" lon="7.0939150">
        <ele>65.2900000</ele>
        <time>2013-10-15T09:51:43Z</time>
      </trkpt>
      <trkpt lat="51.8840010" lon="7.0945280">
        <ele>65.0200000</ele>
        <time>2013-10-15T09:51:59Z</time>
      </trkpt>
      <trkpt lat="51.8848230" lon="7.0954080">
        <ele>64.4020000</ele>
        <time>2013-10-15T09:52:18Z</time>
      </trkpt>
      <trkpt lat="51.8858240" lon="7.0963330">
        <ele>61.3420000</ele>
        <time>2013-10-15T09:52:38Z</time>
      </trkpt>
      <trkpt lat="51.8868980" lon="7.0973230">
        <ele>62.4880000</ele>
        <time>2013-10-15T09:53:00Z</time>
      </trkpt>
      <trkpt lat="51.8877430" lon="7.0977950">
        <ele>65.2010000</ele>
        <time>2013-10-15T09:53:20Z</time>
      </trkpt>
      <trkpt lat="51.8884280" lon="7.0981120">
        <ele>65.6380000</ele>
        <time>2013-10-15T09:53:39Z</time>
      </trkpt>
      <trkpt lat="51.8884330" lon="7.0981120">
        <ele>65.5300000</ele>
        <time>2013-10-15T09:53:53Z</time>
      </trkpt>
      <trkpt lat="51.8884330" lon="7.0981120">
        <ele>65.3820000</ele>
        <time>2013-10-15T09:54:05Z</time>
      </trkpt>
      <trkpt lat="51.8884280" lon="7.0985490">
        <ele>65.5010000</ele>
        <time>2013-10-15T09:54:13Z</time>
      </trkpt>
      <trkpt lat="51.8884280" lon="7.0998190">
        <ele>66.8320000</ele>
        <time>2013-10-15T09:54:32Z</time>
      </trkpt>
      <trkpt lat="51.8884280" lon="7.1019110">
        <ele>66.9460000</ele>
        <time>2013-10-15T09:54:59Z</time>
      </trkpt>
      <trkpt lat="51.8884280" lon="7.1035790">
        <ele>65.8260000</ele>
        <time>2013-10-15T09:55:20Z</time>
      </trkpt>
      <trkpt lat="51.8884280" lon="7.1037340">
        <ele>65.9810000</ele>
        <time>2013-10-15T09:55:23Z</time>
      </trkpt>
      <trkpt lat="51.8883990" lon="7.1037340">
        <ele>66.3940000</ele>
        <time>2013-10-15T09:55:35Z</time>
      </trkpt>
      <trkpt lat="51.8881540" lon="7.1037340">
        <ele>63.7080000</ele>
        <time>2013-10-15T09:55:48Z</time>
      </trkpt>
      <trkpt lat="51.8872180" lon="7.1037340">
        <ele>62.6070000</ele>
        <time>2013-10-15T09:56:11Z</time>
      </trkpt>
      <trkpt lat="51.8862620" lon="7.1037340">
        <ele>63.9290000</ele>
        <time>2013-10-15T09:56:35Z</time>
      </trkpt>
      <trkpt lat="51.8862080" lon="7.1039000">
        <ele>64.5900000</ele>
        <time>2013-10-15T09:56:45Z</time>
      </trkpt>
      <trkpt lat="51.8862080" lon="7.1039000">
        <ele>64.4010000</ele>
        <time>2013-10-15T09:58:37Z</time>
      </trkpt>
      <trkpt lat="51.8864160" lon="7.1045320">
        <ele>63.0750000</ele>
        <time>2013-10-15T09:58:48Z</time>
      </trkpt>
      <trkpt lat="51.8868930" lon="7.1059850">
        <ele>60.9600000</ele>
        <time>2013-10-15T09:59:06Z</time>
      </trkpt>
      <trkpt lat="51.8875620" lon="7.1080190">
        <ele>59.4920000</ele>
        <time>2013-10-15T09:59:29Z</time>
      </trkpt>
      <trkpt lat="51.8883850" lon="7.1104340">
        <ele>58.6840000</ele>
        <time>2013-10-15T09:59:59Z</time>
      </trkpt>
      <trkpt lat="51.8891740" lon="7.1120960">
        <ele>58.9130000</ele>
        <time>2013-10-15T10:00:22Z</time>
      </trkpt>
      <trkpt lat="51.8895590" lon="7.1129140">
        <ele>59.0830000</ele>
        <time>2013-10-15T10:00:34Z</time>
      </trkpt>
      <trkpt lat="51.8900590" lon="7.1141200">
        <ele>60.9620000</ele>
        <time>2013-10-15T10:00:53Z</time>
      </trkpt>
      <trkpt lat="51.8901690" lon="7.1143890">
        <ele>59.8660000</ele>
        <time>2013-10-15T10:00:54Z</time>
      </trkpt>
      <trkpt lat="51.8907050" lon="7.1156960">
        <ele>61.2810000</ele>
        <time>2013-10-15T10:01:12Z</time>
      </trkpt>
      <trkpt lat="51.8910590" lon="7.1165530">
        <ele>61.4240000</ele>
        <time>2013-10-15T10:01:24Z</time>
      </trkpt>
      <trkpt lat="51.8910840" lon="7.1166160">
        <ele>61.1430000</ele>
        <time>2013-10-15T10:01:25Z</time>
      </trkpt>
      <trkpt lat="51.8911700" lon="7.1168230">
        <ele>61.0720000</ele>
        <time>2013-10-15T10:01:28Z</time>
      </trkpt>
      <trkpt lat="51.8913260" lon="7.1172010">
        <ele>62.1650000</ele>
        <time>2013-10-15T10:01:32Z</time>
      </trkpt>
      <trkpt lat="51.8914350" lon="7.1174670">
        <ele>61.2970000</ele>
        <time>2013-10-15T10:01:36Z</time>
      </trkpt>
      <trkpt lat="51.8917750" lon="7.1182910">
        <ele>62.4220000</ele>
        <time>2013-10-15T10:01:49Z</time>
      </trkpt>
      <trkpt lat="51.8918500" lon="7.1184720">
        <ele>62.6800000</ele>
        <time>2013-10-15T10:01:51Z</time>
      </trkpt>
      <trkpt lat="51.8919420" lon="7.1186950">
        <ele>62.3270000</ele>
        <time>2013-10-15T10:01:54Z</time>
      </trkpt>
      <trkpt lat="51.8920470" lon="7.1189500">
        <ele>62.8750000</ele>
        <time>2013-10-15T10:01:58Z</time>
      </trkpt>
      <trkpt lat="51.8923080" lon="7.1195830">
        <ele>63.0730000</ele>
        <time>2013-10-15T10:02:08Z</time>
      </trkpt>
      <trkpt lat="51.8926500" lon="7.1202710">
        <ele>64.1120000</ele>
        <time>2013-10-15T10:02:20Z</time>
      </trkpt>
      <trkpt lat="51.8930510" lon="7.1209460">
        <ele>64.5690000</ele>
        <time>2013-10-15T10:02:33Z</time>
      </trkpt>
      <trkpt lat="51.8934320" lon="7.1215840">
        <ele>65.2820000</ele>
        <time>2013-10-15T10:02:44Z</time>
      </trkpt>
      <trkpt lat="51.8938710" lon="7.1223220">
        <ele>66.2270000</ele>
        <time>2013-10-15T10:02:56Z</time>
      </trkpt>
      <trkpt lat="51.8943570" lon="7.1231380">
        <ele>67.8660000</ele>
        <time>2013-10-15T10:03:10Z</time>
      </trkpt>
      <trkpt lat="51.8948940" lon="7.1240730">
        <ele>69.9090000</ele>
        <time>2013-10-15T10:03:30Z</time>
      </trkpt>
      <trkpt lat="51.8953720" lon="7.1254310">
        <ele>71.2660000</ele>
        <time>2013-10-15T10:03:53Z</time>
      </trkpt>
      <trkpt lat="51.8957430" lon="7.1264840">
        <ele>71.6350000</ele>
        <time>2013-10-15T10:04:09Z</time>
      </trkpt>
      <trkpt lat="51.8959930" lon="7.1271950">
        <ele>73.4120000</ele>
        <time>2013-10-15T10:04:22Z</time>
      </trkpt>
      <trkpt lat="51.8962580" lon="7.1279480">
        <ele>74.5720000</ele>
        <time>2013-10-15T10:04:34Z</time>
      </trkpt>
      <trkpt lat="51.8965540" lon="7.1287880">
        <ele>76.8460000</ele>
        <time>2013-10-15T10:04:49Z</time>
      </trkpt>
      <trkpt lat="51.8969060" lon="7.1298370">
        <ele>77.6480000</ele>
        <time>2013-10-15T10:05:06Z</time>
      </trkpt>
      <trkpt lat="51.8970890" lon="7.1305360">
        <ele>77.6920000</ele>
        <time>2013-10-15T10:05:20Z</time>
      </trkpt>
      <trkpt lat="51.8973040" lon="7.1315400">
        <ele>75.0490000</ele>
        <time>2013-10-15T10:05:35Z</time>
      </trkpt>
      <trkpt lat="51.8974990" lon="7.1324470">
        <ele>72.2740000</ele>
        <time>2013-10-15T10:05:46Z</time>
      </trkpt>
      <trkpt lat="51.8975540" lon="7.1327050">
        <ele>71.0140000</ele>
        <time>2013-10-15T10:05:49Z</time>
      </trkpt>
      <trkpt lat="51.8976580" lon="7.1331910">
        <ele>69.7990000</ele>
        <time>2013-10-15T10:05:54Z</time>
      </trkpt>
      <trkpt lat="51.8979680" lon="7.1346380">
        <ele>67.4360000</ele>
        <time>2013-10-15T10:06:09Z</time>
      </trkpt>
      <trkpt lat="51.8981370" lon="7.1354260">
        <ele>65.3120000</ele>
        <time>2013-10-15T10:06:18Z</time>
      </trkpt>
      <trkpt lat="51.8982120" lon="7.1356340">
        <ele>65.1560000</ele>
        <time>2013-10-15T10:06:21Z</time>
      </trkpt>
      <trkpt lat="51.8987810" lon="7.1364070">
        <ele>63.3930000</ele>
        <time>2013-10-15T10:06:35Z</time>
      </trkpt>
      <trkpt lat="51.8990860" lon="7.1368200">
        <ele>62.4490000</ele>
        <time>2013-10-15T10:06:42Z</time>
      </trkpt>
      <trkpt lat="51.8992100" lon="7.1369880">
        <ele>62.5610000</ele>
        <time>2013-10-15T10:06:45Z</time>
      </trkpt>
      <trkpt lat="51.8994670" lon="7.1373370">
        <ele>61.9970000</ele>
        <time>2013-10-15T10:06:51Z</time>
      </trkpt>
      <trkpt lat="51.9002430" lon="7.1383890">
        <ele>61.4220000</ele>
        <time>2013-10-15T10:07:08Z</time>
      </trkpt>
      <trkpt lat="51.9010780" lon="7.1394120">
        <ele>61.3230000</ele>
        <time>2013-10-15T10:07:28Z</time>
      </trkpt>
      <trkpt lat="51.9021810" lon="7.1405640">
        <ele>61.6720000</ele>
        <time>2013-10-15T10:07:53Z</time>
      </trkpt>
      <trkpt lat="51.9033970" lon="7.1418260">
        <ele>62.1080000</ele>
        <time>2013-10-15T10:08:20Z</time>
      </trkpt>
      <trkpt lat="51.9045760" lon="7.1431730">
        <ele>62.2960000</ele>
        <time>2013-10-15T10:08:47Z</time>
      </trkpt>
      <trkpt lat="51.9055130" lon="7.1442360">
        <ele>62.6290000</ele>
        <time>2013-10-15T10:09:09Z</time>
      </trkpt>
      <trkpt lat="51.9061890" lon="7.1449050">
        <ele>62.9650000</ele>
        <time>2013-10-15T10:09:25Z</time>
      </trkpt>
      <trkpt lat="51.9070470" lon="7.1459770">
        <ele>64.6710000</ele>
        <time>2013-10-15T10:09:49Z</time>
      </trkpt>
      <trkpt lat="51.9072660" lon="7.1462500">
        <ele>64.9260000</ele>
        <time>2013-10-15T10:10:01Z</time>
      </trkpt>
      <trkpt lat="51.9072660" lon="7.1462500">
        <ele>64.9500000</ele>
        <time>2013-10-15T10:10:49Z</time>
      </trkpt>
      <trkpt lat="51.9072660" lon="7.1462500">
        <ele>65.3870000</ele>
        <time>2013-10-15T10:11:00Z</time>
      </trkpt>
      <trkpt lat="51.9071350" lon="7.1464000">
        <ele>65.5370000</ele>
        <time>2013-10-15T10:11:05Z</time>
      </trkpt>
      <trkpt lat="51.9064940" lon="7.1470940">
        <ele>64.8660000</ele>
        <time>2013-10-15T10:11:24Z</time>
      </trkpt>
      <trkpt lat="51.9056540" lon="7.1478270">
        <ele>64.6680000</ele>
        <time>2013-10-15T10:11:45Z</time>
      </trkpt>
      <trkpt lat="51.9047230" lon="7.1485110">
        <ele>63.6310000</ele>
        <time>2013-10-15T10:12:07Z</time>
      </trkpt>
      <trkpt lat="51.9045920" lon="7.1487040">
        <ele>63.9690000</ele>
        <time>2013-10-15T10:12:11Z</time>
      </trkpt>
      <trkpt lat="51.9041070" lon="7.1499150">
        <ele>63.5240000</ele>
        <time>2013-10-15T10:12:32Z</time>
      </trkpt>
      <trkpt lat="51.9039360" lon="7.1503450">
        <ele>63.6660000</ele>
        <time>2013-10-15T10:12:45Z</time>
      </trkpt>
      <trkpt lat="51.9039360" lon="7.1503450">
        <ele>63.9870000</ele>
        <time>2013-10-15T10:14:02Z</time>
      </trkpt>
      <trkpt lat="51.9037030" lon="7.1510050">
        <ele>64.7650000</ele>
        <time>2013-10-15T10:14:18Z</time>
      </trkpt>
      <trkpt lat="51.9032950" lon="7.1522440">
        <ele>65.1530000</ele>
        <time>2013-10-15T10:14:41Z</time>
      </trkpt>
      <trkpt lat="51.9031170" lon="7.1533160">
        <ele>65.3940000</ele>
        <time>2013-10-15T10:14:58Z</time>
      </trkpt>
      <trkpt lat="51.9030240" lon="7.1538720">
        <ele>65.0310000</ele>
        <time>2013-10-15T10:15:06Z</time>
      </trkpt>
      <trkpt lat="51.9030020" lon="7.1540050">
        <ele>64.8920000</ele>
        <time>2013-10-15T10:15:08Z</time>
      </trkpt>
      <trkpt lat="51.9029790" lon="7.1541440">
        <ele>65.6150000</ele>
        <time>2013-10-15T10:15:10Z</time>
      </trkpt>
      <trkpt lat="51.9029760" lon="7.1543310">
        <ele>65.1040000</ele>
        <time>2013-10-15T10:15:13Z</time>
      </trkpt>
      <trkpt lat="51.9032300" lon="7.1553740">
        <ele>64.8470000</ele>
        <time>2013-10-15T10:15:28Z</time>
      </trkpt>
      <trkpt lat="51.9035340" lon="7.1565620">
        <ele>65.5110000</ele>
        <time>2013-10-15T10:15:44Z</time>
      </trkpt>
      <trkpt lat="51.9036020" lon="7.1573490">
        <ele>66.0080000</ele>
        <time>2013-10-15T10:15:55Z</time>
      </trkpt>
      <trkpt lat="51.9037290" lon="7.1582600">
        <ele>66.6370000</ele>
        <time>2013-10-15T10:16:08Z</time>
      </trkpt>
      <trkpt lat="51.9039040" lon="7.1595090">
        <ele>68.0590000</ele>
        <time>2013-10-15T10:16:26Z</time>
      </trkpt>
      <trkpt lat="51.9040250" lon="7.1603680">
        <ele>68.6890000</ele>
        <time>2013-10-15T10:16:38Z</time>
      </trkpt>
      <trkpt lat="51.9042500" lon="7.1619250">
        <ele>69.5340000</ele>
        <time>2013-10-15T10:17:01Z</time>
      </trkpt>
      <trkpt lat="51.9044020" lon="7.1629470">
        <ele>69.9190000</ele>
        <time>2013-10-15T10:17:15Z</time>
      </trkpt>
      <trkpt lat="51.9046040" lon="7.1643020">
        <ele>70.8660000</ele>
        <time>2013-10-15T10:17:34Z</time>
      </trkpt>
      <trkpt lat="51.9047560" lon="7.1653220">
        <ele>72.0940000</ele>
        <time>2013-10-15T10:17:50Z</time>
      </trkpt>
      <trkpt lat="51.9048090" lon="7.1656770">
        <ele>73.9810000</ele>
        <time>2013-10-15T10:18:05Z</time>
      </trkpt>
      <trkpt lat="51.9048090" lon="7.1656770">
        <ele>69.9400000</ele>
        <time>2013-10-15T10:18:07Z</time>
      </trkpt>
      <trkpt lat="51.9048090" lon="7.1656770">
        <ele>76.7550000</ele>
        <time>2013-10-15T10:18:08Z</time>
      </trkpt>
      <trkpt lat="51.9048090" lon="7.1656770">
        <ele>74.8700000</ele>
        <time>2013-10-15T10:18:09Z</time>
      </trkpt>
      <trkpt lat="51.9048090" lon="7.1656770">
        <ele>73.6160000</ele>
        <time>2013-10-15T10:18:11Z</time>
      </trkpt>
      <trkpt lat="51.9048090" lon="7.1656770">
        <ele>73.8300000</ele>
        <time>2013-10-15T10:18:40Z</time>
      </trkpt>
      <trkpt lat="51.9048640" lon="7.1660470">
        <ele>74.0210000</ele>
        <time>2013-10-15T10:19:29Z</time>
      </trkpt>
      <trkpt lat="51.9046990" lon="7.1669540">
        <ele>74.5950000</ele>
        <time>2013-10-15T10:19:43Z</time>
      </trkpt>
      <trkpt lat="51.9046530" lon="7.1683250">
        <ele>74.7860000</ele>
        <time>2013-10-15T10:20:04Z</time>
      </trkpt>
      <trkpt lat="51.9045260" lon="7.1686070">
        <ele>74.2120000</ele>
        <time>2013-10-15T10:20:10Z</time>
      </trkpt>
      <trkpt lat="51.9043870" lon="7.1687810">
        <ele>74.8690000</ele>
        <time>2013-10-15T10:20:14Z</time>
      </trkpt>
      <trkpt lat="51.9040200" lon="7.1692430">
        <ele>74.1710000</ele>
        <time>2013-10-15T10:20:24Z</time>
      </trkpt>
      <trkpt lat="51.9033460" lon="7.1700930">
        <ele>73.7200000</ele>
        <time>2013-10-15T10:20:40Z</time>
      </trkpt>
      <trkpt lat="51.9026440" lon="7.1709790">
        <ele>72.7910000</ele>
        <time>2013-10-15T10:20:59Z</time>
      </trkpt>
      <trkpt lat="51.9016780" lon="7.1721970">
        <ele>71.6750000</ele>
        <time>2013-10-15T10:21:25Z</time>
      </trkpt>
      <trkpt lat="51.9012080" lon="7.1727890">
        <ele>71.9670000</ele>
        <time>2013-10-15T10:21:38Z</time>
      </trkpt>
      <trkpt lat="51.9007020" lon="7.1734290">
        <ele>70.8750000</ele>
        <time>2013-10-15T10:21:55Z</time>
      </trkpt>
      <trkpt lat="51.8996500" lon="7.1747760">
        <ele>70.8780000</ele>
        <time>2013-10-15T10:22:20Z</time>
      </trkpt>
      <trkpt lat="51.8988090" lon="7.1758540">
        <ele>69.9090000</ele>
        <time>2013-10-15T10:22:42Z</time>
      </trkpt>
      <trkpt lat="51.8980680" lon="7.1768040">
        <ele>68.9900000</ele>
        <time>2013-10-15T10:23:02Z</time>
      </trkpt>
      <trkpt lat="51.8975420" lon="7.1774680">
        <ele>68.4120000</ele>
        <time>2013-10-15T10:23:17Z</time>
      </trkpt>
      <trkpt lat="51.8970320" lon="7.1780730">
        <ele>69.3820000</ele>
        <time>2013-10-15T10:23:33Z</time>
      </trkpt>
      <trkpt lat="51.8969680" lon="7.1781490">
        <ele>69.5350000</ele>
        <time>2013-10-15T10:23:47Z</time>
      </trkpt>
      <trkpt lat="51.8969680" lon="7.1781490">
        <ele>69.4500000</ele>
        <time>2013-10-15T10:24:27Z</time>
      </trkpt>
      <trkpt lat="51.8970760" lon="7.1789620">
        <ele>68.8940000</ele>
        <time>2013-10-15T10:24:40Z</time>
      </trkpt>
      <trkpt lat="51.8972250" lon="7.1801720">
        <ele>70.5380000</ele>
        <time>2013-10-15T10:25:00Z</time>
      </trkpt>
      <trkpt lat="51.8972250" lon="7.1802550">
        <ele>70.7320000</ele>
        <time>2013-10-15T10:25:02Z</time>
      </trkpt>
      <trkpt lat="51.8968710" lon="7.1806850">
        <ele>68.3080000</ele>
        <time>2013-10-15T10:25:14Z</time>
      </trkpt>
      <trkpt lat="51.8960440" lon="7.1818190">
        <ele>68.1300000</ele>
        <time>2013-10-15T10:25:39Z</time>
      </trkpt>
      <trkpt lat="51.8953900" lon="7.1826990">
        <ele>67.7040000</ele>
        <time>2013-10-15T10:25:59Z</time>
      </trkpt>
      <trkpt lat="51.8951650" lon="7.1829560">
        <ele>69.3930000</ele>
        <time>2013-10-15T10:26:12Z</time>
      </trkpt>
      <trkpt lat="51.8953300" lon="7.1833200">
        <ele>69.6700000</ele>
        <time>2013-10-15T10:26:23Z</time>
      </trkpt>
      <trkpt lat="51.8953300" lon="7.1833200">
        <ele>69.1990000</ele>
        <time>2013-10-15T10:26:44Z</time>
      </trkpt>
      <trkpt lat="51.8949520" lon="7.1839020">
        <ele>68.3680000</ele>
        <time>2013-10-15T10:26:57Z</time>
      </trkpt>
      <trkpt lat="51.8944200" lon="7.1846500">
        <ele>68.0610000</ele>
        <time>2013-10-15T10:27:14Z</time>
      </trkpt>
      <trkpt lat="51.8940060" lon="7.1852260">
        <ele>67.9440000</ele>
        <time>2013-10-15T10:27:26Z</time>
      </trkpt>
      <trkpt lat="51.8935150" lon="7.1859120">
        <ele>67.5900000</ele>
        <time>2013-10-15T10:27:41Z</time>
      </trkpt>
      <trkpt lat="51.8933030" lon="7.1862070">
        <ele>67.8810000</ele>
        <time>2013-10-15T10:27:47Z</time>
      </trkpt>
      <trkpt lat="51.8931320" lon="7.1866500">
        <ele>68.0800000</ele>
        <time>2013-10-15T10:27:56Z</time>
      </trkpt>
      <trkpt lat="51.8930780" lon="7.1868340">
        <ele>67.2530000</ele>
        <time>2013-10-15T10:28:00Z</time>
      </trkpt>
      <trkpt lat="51.8930050" lon="7.1873290">
        <ele>68.9230000</ele>
        <time>2013-10-15T10:28:16Z</time>
      </trkpt>
      <trkpt lat="51.8930050" lon="7.1873290">
        <ele>68.7970000</ele>
        <time>2013-10-15T10:28:30Z</time>
      </trkpt>
    </trkseg>
  </trk>

</gpx>
